Time;durP1;ratioP1;P1;durP2;ratioP2;P2;SDS_P1;SDS_P2;PMS_P1;PMS_P2;Temp;Humidity;BMP_temperature;BMP_pressure;BME280_temperature;BME280_humidity;BME280_pressure;Samples;Min_cycle;Max_cycle;Signal;HPM_P1;HPM_P2
2023/04/19 00:00:07;;;;;;;20.35;12.73;;;28.00;99.90;;;;;;5034871;28;20396;-71
2023/04/19 00:02:34;;;;;;;20.55;12.88;;;28.00;99.90;;;;;;5033839;28;20390;-71
2023/04/19 00:05:01;;;;;;;22.33;13.70;;;28.00;99.90;;;;;;5034792;28;20373;-70
2023/04/19 00:07:28;;;;;;;22.00;12.00;;;28.00;99.90;;;;;;5034584;28;20493;-70
2023/04/19 00:09:54;;;;;;;18.52;11.23;;;28.00;99.90;;;;;;5034959;28;20371;-70
2023/04/19 00:12:21;;;;;;;15.25;10.77;;;28.00;99.90;;;;;;5034778;28;20365;-70
2023/04/19 00:14:47;;;;;;;16.13;10.30;;;28.10;99.90;;;;;;5034401;28;20368;-72
2023/04/19 00:17:14;;;;;;;19.40;11.93;;;28.10;99.90;;;;;;5028305;28;20876;-71
2023/04/19 00:19:40;;;;;;;15.52;10.32;;;28.20;99.90;;;;;;5020680;28;20375;-72
2023/04/19 00:22:07;;;;;;;16.58;11.20;;;28.20;99.90;;;;;;5016184;28;20914;-70
2023/04/19 00:24:33;;;;;;;16.45;12.00;;;28.30;99.90;;;;;;5034544;28;20372;-73
2023/04/19 00:27:01;;;;;;;14.90;11.20;;;28.30;99.90;;;;;;5034356;28;20425;-73
2023/04/19 00:29:27;;;;;;;16.02;10.45;;;28.30;99.90;;;;;;5034262;28;20404;-71
2023/04/19 00:31:54;;;;;;;13.27;10.18;;;28.40;99.90;;;;;;5034414;28;20399;-70
2023/04/19 00:34:20;;;;;;;17.67;11.02;;;28.40;99.90;;;;;;5034212;28;20372;-70
2023/04/19 00:36:47;;;;;;;17.52;11.65;;;28.40;99.90;;;;;;5034013;28;20369;-71
2023/04/19 00:39:14;;;;;;;15.52;11.52;;;28.40;99.90;;;;;;5034126;28;20854;-70
2023/04/19 00:41:40;;;;;;;18.27;12.00;;;28.40;99.90;;;;;;5034169;28;20861;-74
2023/04/19 00:44:07;;;;;;;15.32;11.43;;;28.50;99.90;;;;;;5016101;28;20791;-73
2023/04/19 00:46:34;;;;;;;16.83;12.13;;;28.50;99.90;;;;;;5034263;28;20452;-76
2023/04/19 00:49:00;;;;;;;19.67;14.10;;;28.60;99.90;;;;;;5033983;28;20881;-75
2023/04/19 00:51:27;;;;;;;18.05;13.70;;;28.60;99.90;;;;;;5033851;28;20423;-73
2023/04/19 00:53:54;;;;;;;19.23;14.18;;;28.70;99.90;;;;;;5034249;28;20444;-75
2023/04/19 00:56:22;;;;;;;25.97;17.80;;;28.70;99.90;;;;;;5033903;28;20393;-72
2023/04/19 00:58:49;;;;;;;23.40;18.65;;;28.80;99.90;;;;;;5033611;28;20373;-71
2023/04/19 01:01:17;;;;;;;23.52;18.10;;;28.90;99.90;;;;;;5033858;28;20454;-71
2023/04/19 01:03:45;;;;;;;26.48;21.83;;;29.00;99.90;;;;;;5033886;28;20376;-72
2023/04/19 01:06:12;;;;;;;63.22;49.67;;;29.10;99.90;;;;;;5030905;28;20389;-70
2023/04/19 01:08:39;;;;;;;38.65;28.63;;;29.10;99.90;;;;;;5018798;28;20399;-71
2023/04/19 01:11:07;;;;;;;41.20;31.57;;;29.20;99.90;;;;;;5023805;28;20854;-72
2023/04/19 01:13:33;;;;;;;47.42;35.13;;;29.30;99.90;;;;;;5032230;28;20381;-72
2023/04/19 01:16:00;;;;;;;56.17;42.08;;;29.40;99.90;;;;;;5031956;28;20479;-71
2023/04/19 01:18:31;;;;;;;40.17;28.33;;;29.50;99.90;;;;;;5022153;28;20386;-72
2023/04/19 01:21:00;;;;;;;45.80;37.70;;;29.50;99.90;;;;;;5033200;28;20369;-72
2023/04/19 01:23:26;;;;;;;61.55;46.50;;;29.60;99.90;;;;;;5033208;28;20366;-72
2023/04/19 01:25:53;;;;;;;47.83;28.90;;;29.70;99.90;;;;;;5033213;28;20456;-72
2023/04/19 01:28:19;;;;;;;27.85;22.70;;;29.70;99.90;;;;;;5033053;28;20393;-74
2023/04/19 01:30:46;;;;;;;30.77;22.80;;;29.70;99.90;;;;;;5033135;28;20473;-72
2023/04/19 01:33:13;;;;;;;28.35;22.63;;;29.70;99.90;;;;;;5033284;28;20361;-73
2023/04/19 01:35:39;;;;;;;32.33;23.42;;;29.70;99.90;;;;;;5033338;28;20365;-72
2023/04/19 01:38:06;;;;;;;29.90;22.77;;;29.70;99.90;;;;;;5033258;28;20404;-73
2023/04/19 01:40:32;;;;;;;25.88;21.85;;;29.70;99.90;;;;;;5053966;22;20912;-73
2023/04/19 01:42:59;;;;;;;29.20;22.38;;;29.80;99.90;;;;;;5033256;28;20838;-72
2023/04/19 01:45:25;;;;;;;29.83;22.55;;;29.80;99.90;;;;;;5032902;28;20460;-72
2023/04/19 01:47:52;;;;;;;34.17;23.00;;;29.90;99.90;;;;;;5033143;28;20905;-72
2023/04/19 01:50:18;;;;;;;31.70;22.95;;;29.90;99.90;;;;;;5032885;28;20373;-73
2023/04/19 01:52:45;;;;;;;29.17;23.05;;;29.90;99.90;;;;;;5032857;28;20493;-73
2023/04/19 01:55:12;;;;;;;26.80;22.77;;;29.90;99.90;;;;;;5032788;28;20369;-73
2023/04/19 01:57:38;;;;;;;30.47;23.33;;;29.90;99.90;;;;;;5033500;28;20368;-73
2023/04/19 02:00:05;;;;;;;41.00;26.57;;;29.90;99.90;;;;;;5041188;28;20372;-74
2023/04/19 02:02:32;;;;;;;33.83;24.25;;;30.00;99.90;;;;;;5041923;28;20870;-73
2023/04/19 02:04:58;;;;;;;30.42;26.00;;;30.00;99.90;;;;;;5041636;28;20379;-73
2023/04/19 02:07:25;;;;;;;29.33;24.52;;;30.10;99.90;;;;;;5041360;28;20401;-72
2023/04/19 02:09:51;;;;;;;31.48;24.35;;;30.10;99.90;;;;;;5038695;28;20381;-73
2023/04/19 02:12:18;;;;;;;38.78;28.02;;;30.20;99.90;;;;;;5041513;28;20367;-72
2023/04/19 02:14:44;;;;;;;30.05;24.48;;;30.30;99.90;;;;;;5041206;28;20550;-71
2023/04/19 02:17:11;;;;;;;30.77;25.20;;;30.40;99.90;;;;;;5038621;28;20769;-71
2023/04/19 02:19:37;;;;;;;109.23;85.43;;;30.30;99.90;;;;;;5032710;28;20361;-73
2023/04/19 02:22:04;;;;;;;83.67;64.57;;;30.50;99.90;;;;;;5032567;28;20381;-72
2023/04/19 02:24:30;;;;;;;59.07;43.37;;;30.60;99.90;;;;;;5032757;28;20734;-73
2023/04/19 02:26:57;;;;;;;39.73;30.67;;;30.60;99.90;;;;;;5030602;28;20389;-73
2023/04/19 02:29:23;;;;;;;32.20;26.57;;;30.70;99.90;;;;;;5032147;28;20766;-73
2023/04/19 02:31:50;;;;;;;30.80;25.40;;;30.70;99.90;;;;;;5032105;28;20844;-72
2023/04/19 02:34:17;;;;;;;32.63;24.97;;;30.70;99.90;;;;;;5032218;28;20354;-74
2023/04/19 02:36:44;;;;;;;30.33;25.73;;;30.70;99.90;;;;;;5023497;28;20909;-72
2023/04/19 02:39:11;;;;;;;28.60;22.65;;;30.80;99.90;;;;;;5012291;28;20371;-74
2023/04/19 02:41:38;;;;;;;78.78;68.28;;;30.90;99.90;;;;;;5012435;28;20408;-72
2023/04/19 02:44:04;;;;;;;90.73;74.67;;;31.00;99.90;;;;;;5012117;28;20394;-70
2023/04/19 02:46:31;;;;;;;39.22;34.65;;;31.00;99.90;;;;;;5012204;28;20373;-71
2023/04/19 02:48:59;;;;;;;38.28;30.75;;;31.00;99.90;;;;;;5015584;28;20459;-71
2023/04/19 02:51:26;;;;;;;104.63;79.60;;;31.00;99.90;;;;;;5032380;28;20366;-70
2023/04/19 02:53:52;;;;;;;55.00;43.28;;;31.00;99.90;;;;;;5031802;28;20373;-69
2023/04/19 02:56:19;;;;;;;32.70;27.63;;;31.00;99.90;;;;;;5031539;28;20370;-70
2023/04/19 02:58:45;;;;;;;26.73;23.13;;;31.10;99.90;;;;;;5014893;28;20378;-69
2023/04/19 03:01:12;;;;;;;29.90;23.45;;;31.20;99.90;;;;;;5021214;28;20385;-70
2023/04/19 03:03:39;;;;;;;29.48;25.02;;;31.20;99.90;;;;;;5014113;28;20382;-70
2023/04/19 03:06:05;;;;;;;27.83;24.30;;;31.20;99.90;;;;;;5015127;28;20386;-70
2023/04/19 03:08:32;;;;;;;28.40;23.63;;;31.20;99.90;;;;;;5021106;28;20439;-71
2023/04/19 03:10:58;;;;;;;27.77;22.63;;;31.20;99.90;;;;;;5021395;28;20458;-70
2023/04/19 03:13:25;;;;;;;40.67;32.90;;;31.10;99.90;;;;;;5012351;28;20732;-70
2023/04/19 03:15:52;;;;;;;48.78;40.47;;;31.20;99.90;;;;;;5012079;28;20368;-69
2023/04/19 03:18:18;;;;;;;29.42;24.73;;;31.20;99.90;;;;;;5016378;28;20417;-70
2023/04/19 03:20:45;;;;;;;55.38;48.45;;;31.30;99.90;;;;;;5011928;28;20751;-72
2023/04/19 03:23:11;;;;;;;69.22;59.28;;;31.30;99.90;;;;;;5020864;28;20913;-70
2023/04/19 03:25:38;;;;;;;34.60;30.30;;;31.40;99.90;;;;;;5012155;28;20371;-73
2023/04/19 03:28:04;;;;;;;27.58;23.48;;;31.50;99.90;;;;;;5012092;28;20391;-70
2023/04/19 03:30:31;;;;;;;29.15;23.95;;;31.70;99.90;;;;;;5011966;28;20374;-71
2023/04/19 03:32:58;;;;;;;26.48;22.40;;;31.70;99.90;;;;;;5012401;28;20374;-68
2023/04/19 03:35:25;;;;;;;23.67;21.13;;;31.80;99.90;;;;;;5012076;28;20367;-69
2023/04/19 03:37:52;;;;;;;25.33;21.75;;;31.80;99.90;;;;;;5013868;28;20463;-70
2023/04/19 03:40:19;;;;;;;95.15;78.13;;;31.70;99.90;;;;;;5015301;28;20435;-68
2023/04/19 03:42:45;;;;;;;38.28;31.63;;;31.80;99.90;;;;;;5026003;28;20385;-69
2023/04/19 03:45:12;;;;;;;29.60;24.85;;;31.90;99.90;;;;;;5035342;28;20877;-68
2023/04/19 03:47:38;;;;;;;25.80;22.95;;;31.90;99.90;;;;;;5035417;28;20397;-68
2023/04/19 03:50:05;;;;;;;26.52;22.80;;;31.90;99.90;;;;;;5035581;28;20427;-68
2023/04/19 03:52:31;;;;;;;24.00;21.60;;;32.00;99.90;;;;;;5035420;28;20718;-68
2023/04/19 03:54:58;;;;;;;27.30;24.33;;;31.90;99.90;;;;;;5028796;28;20374;-68
2023/04/19 03:57:25;;;;;;;23.45;20.67;;;31.90;99.90;;;;;;5023645;28;20559;-70
2023/04/19 03:59:51;;;;;;;23.48;21.08;;;31.90;99.90;;;;;;5015175;28;20857;-71
2023/04/19 04:02:18;;;;;;;23.63;21.13;;;32.00;99.90;;;;;;5015202;28;20462;-70
2023/04/19 04:04:44;;;;;;;24.23;21.55;;;32.00;99.90;;;;;;5015159;28;20379;-71
2023/04/19 04:07:10;;;;;;;24.85;21.67;;;32.00;99.90;;;;;;5015145;28;20434;-69
2023/04/19 04:09:37;;;;;;;22.40;20.00;;;32.00;99.90;;;;;;5015050;28;20394;-69
2023/04/19 04:12:04;;;;;;;27.77;22.27;;;32.00;99.90;;;;;;5015104;28;20371;-69
2023/04/19 04:14:30;;;;;;;26.93;22.50;;;32.00;99.90;;;;;;5024087;28;20722;-70
2023/04/19 04:16:57;;;;;;;24.40;21.70;;;32.10;99.90;;;;;;5041804;28;20364;-69
2023/04/19 04:19:24;;;;;;;25.10;21.77;;;32.10;99.90;;;;;;5040113;28;20365;-69
2023/04/19 04:21:50;;;;;;;22.67;20.23;;;32.20;99.90;;;;;;5038665;28;20930;-68
2023/04/19 04:24:19;;;;;;;24.27;21.67;;;32.20;99.90;;;;;;5044028;28;20361;-72
2023/04/19 04:26:45;;;;;;;24.05;21.40;;;32.20;99.90;;;;;;5038685;28;20814;-69
2023/04/19 04:29:12;;;;;;;23.02;20.60;;;32.30;99.90;;;;;;5051472;28;20857;-70
2023/04/19 04:31:38;;;;;;;23.02;20.40;;;32.40;99.90;;;;;;5049527;28;20367;-67
2023/04/19 04:34:05;;;;;;;25.58;21.00;;;32.40;99.90;;;;;;5043396;28;20366;-70
2023/04/19 04:36:31;;;;;;;22.90;20.67;;;32.40;99.90;;;;;;5039026;28;20497;-68
2023/04/19 04:39:00;;;;;;;23.77;21.23;;;32.40;99.90;;;;;;5042864;28;20443;-71
2023/04/19 04:41:30;;;;;;;24.27;21.65;;;32.40;99.90;;;;;;5042935;28;20401;-70
2023/04/19 04:44:03;;;;;;;21.48;19.38;;;32.50;99.90;;;;;;5045044;28;20363;-69
2023/04/19 04:46:30;;;;;;;23.58;19.75;;;32.50;99.90;;;;;;5045502;28;20372;-68
2023/04/19 04:48:56;;;;;;;22.92;20.42;;;32.60;99.90;;;;;;5043958;28;20391;-66
2023/04/19 04:51:23;;;;;;;26.63;21.45;;;32.70;99.90;;;;;;5051545;23;21031;-71
2023/04/19 04:53:50;;;;;;;28.73;21.30;;;32.80;99.90;;;;;;5033986;28;20638;-67
2023/04/19 04:56:16;;;;;;;26.50;19.80;;;32.90;99.90;;;;;;5033101;28;20382;-71
2023/04/19 04:58:43;;;;;;;23.42;20.92;;;32.90;99.90;;;;;;5034422;28;20439;-71
2023/04/19 05:01:09;;;;;;;25.50;21.23;;;32.90;99.90;;;;;;5033184;28;20354;-71
2023/04/19 05:03:36;;;;;;;25.98;21.48;;;32.90;99.90;;;;;;5033674;28;20767;-72
2023/04/19 05:06:22;;;;;;;24.88;19.88;;;32.90;99.90;;;;;;5033977;28;20392;-74
2023/04/19 05:08:49;;;;;;;23.90;19.73;;;32.90;99.90;;;;;;5011032;28;20396;-69
2023/04/19 05:11:16;;;;;;;24.90;21.27;;;33.00;99.90;;;;;;5011497;28;20371;-69
2023/04/19 05:13:42;;;;;;;23.35;20.92;;;33.10;99.90;;;;;;5011507;28;20452;-69
2023/04/19 05:16:09;;;;;;;23.33;19.65;;;33.10;99.90;;;;;;5011320;28;20363;-69
2023/04/19 05:18:35;;;;;;;23.05;20.63;;;33.10;99.90;;;;;;5012382;28;20679;-71
2023/04/19 05:21:02;;;;;;;35.13;24.20;;;33.10;99.90;;;;;;5012088;28;20391;-70
2023/04/19 05:23:28;;;;;;;37.88;27.25;;;33.20;99.90;;;;;;5010086;28;20387;-69
2023/04/19 05:25:55;;;;;;;30.58;25.85;;;33.20;99.90;;;;;;5011858;28;20386;-69
2023/04/19 05:28:21;;;;;;;28.98;24.92;;;33.10;99.90;;;;;;5011976;28;20395;-69
2023/04/19 05:30:48;;;;;;;25.45;22.75;;;33.10;99.90;;;;;;5011477;28;20370;-67
2023/04/19 05:33:14;;;;;;;37.05;30.55;;;33.10;99.90;;;;;;5011727;28;20375;-68
2023/04/19 05:35:41;;;;;;;25.08;22.42;;;33.10;99.90;;;;;;5010071;28;20403;-69
2023/04/19 05:38:07;;;;;;;26.20;21.58;;;33.10;99.90;;;;;;5005143;28;20781;-67
2023/04/19 05:40:34;;;;;;;23.92;20.83;;;33.20;99.90;;;;;;5006245;28;20482;-68
2023/04/19 05:43:01;;;;;;;24.00;21.13;;;33.20;99.90;;;;;;5009405;28;20425;-69
2023/04/19 05:45:27;;;;;;;26.42;20.75;;;33.20;99.90;;;;;;5019232;28;20409;-67
2023/04/19 05:47:54;;;;;;;55.10;46.03;;;33.30;99.90;;;;;;5032987;28;20393;-68
2023/04/19 05:50:20;;;;;;;42.38;34.83;;;33.40;99.90;;;;;;5030878;28;20410;-71
2023/04/19 05:52:47;;;;;;;27.67;22.13;;;33.40;99.90;;;;;;5032603;28;20369;-70
2023/04/19 05:55:14;;;;;;;32.38;21.02;;;33.40;99.90;;;;;;5033061;28;20350;-68
2023/04/19 05:57:40;;;;;;;24.50;20.17;;;33.50;99.90;;;;;;5031336;28;20396;-68
2023/04/19 06:00:09;;;;;;;27.60;20.58;;;33.60;99.90;;;;;;5030708;28;20377;-67
2023/04/19 06:02:36;;;;;;;25.15;19.98;;;33.60;99.90;;;;;;5032641;28;20365;-68
2023/04/19 06:05:03;;;;;;;21.73;19.52;;;33.60;99.90;;;;;;5031661;28;20579;-67
2023/04/19 06:07:30;;;;;;;26.98;22.63;;;33.60;99.90;;;;;;5031673;28;20468;-68
2023/04/19 06:09:56;;;;;;;21.33;19.02;;;33.70;99.90;;;;;;5026348;28;20735;-69
2023/04/19 06:12:23;;;;;;;26.42;22.05;;;33.70;99.90;;;;;;5030703;28;20770;-70
2023/04/19 06:14:50;;;;;;;22.83;19.83;;;33.70;99.90;;;;;;5031606;28;20425;-71
2023/04/19 06:17:22;;;;;;;21.60;18.60;;;33.80;99.90;;;;;;5028091;28;20720;-68
2023/04/19 06:19:49;;;;;;;20.55;18.33;;;33.80;99.90;;;;;;5032310;28;20393;-76
2023/04/19 06:22:15;;;;;;;21.27;18.17;;;33.80;99.90;;;;;;5033320;28;20362;-72
2023/04/19 06:24:44;;;;;;;18.95;16.65;;;33.70;99.90;;;;;;5035087;28;20782;-72
2023/04/19 06:27:11;;;;;;;21.87;19.03;;;33.70;99.90;;;;;;5033833;28;20408;-69
2023/04/19 06:29:37;;;;;;;29.37;20.33;;;33.80;99.90;;;;;;5033463;28;20376;-74
2023/04/19 06:32:04;;;;;;;36.83;30.93;;;33.90;99.90;;;;;;5033259;28;20400;-70
2023/04/19 06:34:31;;;;;;;28.37;24.13;;;33.90;99.90;;;;;;5032873;28;20408;-70
2023/04/19 06:36:57;;;;;;;37.80;33.40;;;33.90;99.90;;;;;;5032595;28;20362;-72
2023/04/19 06:39:24;;;;;;;22.60;20.03;;;33.90;99.90;;;;;;5032965;28;20849;-71
2023/04/19 06:41:50;;;;;;;57.27;49.53;;;33.90;99.90;;;;;;5027707;28;20760;-74
2023/04/19 06:44:17;;;;;;;24.38;21.77;;;34.00;99.90;;;;;;5020410;28;20367;-71
2023/04/19 06:46:43;;;;;;;22.65;20.25;;;34.00;99.90;;;;;;5011588;28;20367;-70
2023/04/19 06:49:10;;;;;;;19.67;17.67;;;34.00;99.90;;;;;;5011359;28;20395;-70
2023/04/19 06:51:38;;;;;;;19.83;17.83;;;34.00;99.90;;;;;;5011561;28;20386;-71
2023/04/19 06:54:06;;;;;;;25.10;20.58;;;34.00;99.90;;;;;;5011454;28;20736;-69
2023/04/19 06:56:52;;;;;;;21.35;19.02;;;34.00;99.90;;;;;;5013281;28;20366;-72
2023/04/19 06:59:20;;;;;;;32.15;23.50;;;34.00;99.90;;;;;;5023965;28;20375;-72
2023/04/19 07:01:47;;;;;;;26.13;21.67;;;34.10;99.90;;;;;;5013117;28;20394;-72
2023/04/19 07:04:14;;;;;;;23.50;18.90;;;34.20;99.90;;;;;;5012391;28;20359;-71
2023/04/19 07:06:40;;;;;;;23.15;19.23;;;34.30;99.90;;;;;;5015047;28;20443;-69
2023/04/19 07:09:07;;;;;;;25.23;19.30;;;34.30;99.90;;;;;;5012414;28;20729;-72
2023/04/19 07:11:34;;;;;;;22.98;20.48;;;34.30;99.90;;;;;;5012194;28;20445;-70
2023/04/19 07:14:00;;;;;;;23.53;20.40;;;34.30;99.90;;;;;;5016099;28;20366;-70
2023/04/19 07:16:27;;;;;;;22.83;20.40;;;34.20;99.90;;;;;;5016546;28;20460;-70
2023/04/19 07:18:54;;;;;;;23.27;20.15;;;34.20;99.90;;;;;;5015952;28;20398;-70
2023/04/19 07:21:21;;;;;;;19.70;17.67;;;34.30;99.90;;;;;;5022983;28;20376;-68
2023/04/19 07:23:47;;;;;;;42.25;33.00;;;34.30;99.90;;;;;;5020028;28;20369;-74
2023/04/19 07:26:14;;;;;;;41.08;30.58;;;34.30;99.90;;;;;;5015724;28;20385;-72
2023/04/19 07:28:41;;;;;;;35.65;31.27;;;34.20;99.90;;;;;;5015748;28;20387;-70
2023/04/19 07:31:07;;;;;;;27.17;23.48;;;34.30;99.90;;;;;;5016789;28;20694;-69
2023/04/19 07:33:34;;;;;;;40.85;32.03;;;34.40;99.90;;;;;;5028306;28;20361;-69
2023/04/19 07:36:01;;;;;;;20.27;18.10;;;34.50;99.90;;;;;;5041114;23;20484;-69
2023/04/19 07:38:27;;;;;;;21.25;18.00;;;34.60;99.90;;;;;;5037478;28;20876;-70
2023/04/19 07:40:54;;;;;;;20.95;16.90;;;34.60;99.90;;;;;;5037548;28;20988;-69
2023/04/19 07:43:20;;;;;;;20.60;18.40;;;34.70;99.90;;;;;;5037880;28;20396;-70
2023/04/19 07:45:47;;;;;;;22.48;18.80;;;34.70;99.90;;;;;;5037195;28;20366;-70
2023/04/19 07:48:14;;;;;;;23.02;19.42;;;34.80;99.90;;;;;;5036763;28;20754;-69
2023/04/19 07:50:40;;;;;;;20.85;18.58;;;34.90;99.90;;;;;;5030131;28;20394;-70
2023/04/19 07:53:07;;;;;;;20.55;18.15;;;34.90;99.90;;;;;;5029624;28;20862;-69
2023/04/19 07:55:33;;;;;;;21.75;18.20;;;34.90;99.90;;;;;;5037523;28;20358;-69
2023/04/19 07:58:01;;;;;;;20.77;18.52;;;35.00;99.90;;;;;;5031780;28;20375;-69
2023/04/19 08:00:28;;;;;;;21.70;18.08;;;35.00;99.90;;;;;;5018116;28;20540;-69
2023/04/19 08:02:56;;;;;;;34.33;29.38;;;35.00;99.90;;;;;;5017811;28;20375;-69
2023/04/19 08:05:22;;;;;;;48.92;37.58;;;35.00;99.90;;;;;;5017437;28;20370;-69
2023/04/19 08:07:52;;;;;;;103.00;46.42;;;35.10;99.90;;;;;;5022564;28;20862;-68
2023/04/19 08:10:19;;;;;;;58.00;46.87;;;35.00;99.90;;;;;;5033868;28;20427;-67
2023/04/19 08:12:45;;;;;;;39.40;19.63;;;35.00;99.90;;;;;;5034550;28;20635;-68
2023/04/19 08:15:12;;;;;;;35.63;23.38;;;35.00;99.90;;;;;;5043515;28;20452;-68
2023/04/19 08:17:42;;;;;;;24.83;19.80;;;35.00;99.90;;;;;;5043528;28;20375;-68
2023/04/19 08:20:11;;;;;;;23.83;18.40;;;35.00;99.90;;;;;;5025155;28;20922;-68
2023/04/19 08:22:39;;;;;;;22.93;19.17;;;35.00;99.90;;;;;;5045134;28;21013;-68
2023/04/19 08:25:06;;;;;;;18.17;16.27;;;35.00;99.90;;;;;;5038071;28;20471;-67
2023/04/19 08:27:33;;;;;;;27.00;19.77;;;34.90;99.90;;;;;;5041345;28;20397;-68
2023/04/19 08:30:00;;;;;;;43.75;34.53;;;34.70;99.90;;;;;;5042436;28;20356;-68
2023/04/19 08:32:26;;;;;;;26.75;19.30;;;34.60;99.90;;;;;;5043019;28;20436;-67
2023/04/19 08:34:53;;;;;;;38.00;23.00;;;34.50;99.90;;;;;;5035717;28;20415;-68
2023/04/19 08:37:19;;;;;;;27.65;20.42;;;34.50;99.90;;;;;;5037605;28;20383;-70
2023/04/19 08:39:46;;;;;;;25.03;19.90;;;34.50;99.90;;;;;;5042636;28;20377;-67
2023/04/19 08:42:13;;;;;;;29.50;22.60;;;34.50;99.90;;;;;;5042843;28;20371;-68
2023/04/19 08:44:40;;;;;;;30.33;25.47;;;34.40;99.90;;;;;;5043933;28;20397;-69
2023/04/19 08:47:07;;;;;;;31.30;25.95;;;34.40;99.90;;;;;;5043641;28;20367;-66
2023/04/19 08:49:36;;;;;;;27.10;23.88;;;34.30;99.90;;;;;;5046174;28;20368;-67
2023/04/19 08:52:03;;;;;;;26.80;22.07;;;34.30;99.90;;;;;;5031297;28;20415;-67
2023/04/19 08:54:30;;;;;;;26.60;20.27;;;34.30;99.90;;;;;;5031165;28;20366;-66
2023/04/19 08:57:02;;;;;;;136.07;77.23;;;34.30;99.90;;;;;;5019196;28;20937;-67
2023/04/19 08:59:29;;;;;;;26.38;19.70;;;34.40;99.90;;;;;;5017725;28;20386;-68
2023/04/19 09:01:59;;;;;;;25.63;19.45;;;34.50;99.90;;;;;;5028690;28;20431;-65
2023/04/19 09:04:26;;;;;;;25.08;21.27;;;34.60;99.90;;;;;;5032378;28;20401;-69
2023/04/19 09:06:54;;;;;;;22.50;20.08;;;34.60;99.90;;;;;;5015152;28;20391;-66
2023/04/19 09:09:23;;;;;;;24.85;21.08;;;34.60;99.90;;;;;;5013687;28;20422;-68
2023/04/19 09:11:50;;;;;;;22.60;19.38;;;34.60;99.90;;;;;;5013867;28;20367;-68
2023/04/19 09:14:18;;;;;;;30.33;19.52;;;34.60;99.90;;;;;;5012438;28;20874;-67
2023/04/19 09:16:46;;;;;;;32.45;23.65;;;34.60;99.90;;;;;;5011503;28;20454;-65
2023/04/19 09:19:12;;;;;;;30.88;27.15;;;34.60;99.90;;;;;;5011730;28;20381;-67
2023/04/19 09:21:39;;;;;;;88.97;77.47;;;34.60;99.90;;;;;;5011924;28;20371;-69
2023/04/19 09:24:07;;;;;;;24.67;20.73;;;34.60;99.90;;;;;;5012274;28;20375;-70
2023/04/19 09:26:34;;;;;;;28.20;24.20;;;34.60;99.90;;;;;;5013999;28;20367;-70
2023/04/19 09:29:05;;;;;;;21.35;19.05;;;34.50;99.90;;;;;;5014355;28;20445;-70
2023/04/19 09:31:35;;;;;;;22.92;19.88;;;34.50;99.90;;;;;;5013797;28;20375;-69
2023/04/19 09:34:14;;;;;;;26.38;20.45;;;34.50;99.90;;;;;;5019441;28;20366;-67
2023/04/19 09:36:41;;;;;;;29.70;23.65;;;34.40;99.90;;;;;;5031879;28;20389;-68
2023/04/19 09:39:07;;;;;;;25.57;21.00;;;34.40;99.90;;;;;;5032273;28;20378;-66
2023/04/19 09:41:36;;;;;;;49.57;40.47;;;34.40;99.90;;;;;;5032310;28;20412;-66
2023/04/19 09:44:14;;;;;;;22.77;18.10;;;34.40;99.90;;;;;;5030972;28;20370;-70
2023/04/19 09:46:44;;;;;;;20.02;17.42;;;34.30;99.90;;;;;;5030993;28;20993;-68
2023/04/19 09:49:23;;;;;;;23.42;18.45;;;34.30;99.90;;;;;;5031335;28;20731;-67
2023/04/19 09:51:53;;;;;;;25.97;21.80;;;34.20;99.90;;;;;;5031400;28;20400;-66
2023/04/19 09:54:22;;;;;;;1118.25;839.95;;;34.30;99.90;;;;;;5031344;28;20361;-67
2023/04/19 09:56:49;;;;;;;302.77;269.88;;;34.20;99.90;;;;;;5031785;28;20389;-68
2023/04/19 09:59:16;;;;;;;21.33;19.02;;;34.30;99.90;;;;;;5032854;28;20376;-67
2023/04/19 10:01:47;;;;;;;21.55;17.42;;;34.20;99.90;;;;;;5032773;28;20480;-66
2023/04/19 10:04:25;;;;;;;25.25;19.17;;;34.30;99.90;;;;;;5032891;28;20404;-68
2023/04/19 10:06:53;;;;;;;23.45;17.63;;;34.20;99.90;;;;;;5032931;28;20496;-68
2023/04/19 10:09:24;;;;;;;71.13;59.22;;;34.20;99.90;;;;;;5023167;28;20537;-68
2023/04/19 10:11:53;;;;;;;25.20;17.25;;;34.20;99.90;;;;;;5031572;28;20783;-68
2023/04/19 10:14:25;;;;;;;26.92;21.25;;;34.10;99.90;;;;;;5029612;28;20386;-70
2023/04/19 10:16:51;;;;;;;24.17;19.92;;;34.10;99.90;;;;;;5032568;28;20720;-70
2023/04/19 10:19:20;;;;;;;23.42;19.13;;;34.00;99.90;;;;;;5032486;28;20374;-69
2023/04/19 10:21:48;;;;;;;23.40;17.50;;;34.00;99.90;;;;;;5026187;28;20402;-70
2023/04/19 10:24:20;;;;;;;23.33;18.75;;;33.90;99.90;;;;;;5012460;28;20433;-72
2023/04/19 10:27:10;;;;;;;25.80;19.58;;;33.90;99.90;;;;;;5013172;28;20389;-72
2023/04/19 10:29:57;;;;;;;24.15;18.83;;;33.80;99.90;;;;;;5012867;28;20851;-72
2023/04/19 10:32:28;;;;;;;21.27;16.63;;;33.80;99.90;;;;;;5012604;28;20363;-68
2023/04/19 10:34:54;;;;;;;18.83;16.33;;;33.60;99.90;;;;;;5012451;28;20398;-69
2023/04/19 10:37:24;;;;;;;21.80;15.93;;;33.60;99.90;;;;;;5012295;28;20393;-68
2023/04/19 10:39:51;;;;;;;21.10;15.70;;;33.60;99.90;;;;;;5012674;28;20363;-70
2023/04/19 10:42:18;;;;;;;30.90;19.45;;;33.60;99.90;;;;;;5012622;28;20860;-68
2023/04/19 10:45:24;;;;;;;131.75;106.78;;;33.60;99.90;;;;;;5012533;28;20378;-68
2023/04/19 10:47:51;;;;;;;232.90;198.25;;;33.60;99.90;;;;;;4953839;28;20944;-69
2023/04/19 10:50:18;;;;;;;132.65;109.93;;;33.50;99.90;;;;;;4955961;29;20380;-68
2023/04/19 10:52:45;;;;;;;453.10;377.73;;;33.40;99.90;;;;;;4972340;28;20394;-67
2023/04/19 10:55:15;;;;;;;108.93;74.43;;;33.40;99.90;;;;;;4968140;28;20370;-67
2023/04/19 10:58:03;;;;;;;21.58;15.32;;;33.30;99.90;;;;;;4969181;28;20376;-68
2023/04/19 11:00:31;;;;;;;135.93;109.70;;;33.30;99.90;;;;;;4889862;29;20928;-68
2023/04/19 11:02:59;;;;;;;22.13;15.07;;;33.20;99.90;;;;;;4892177;29;20405;-66
2023/04/19 11:05:26;;;;;;;27.08;20.55;;;33.10;99.90;;;;;;4897170;29;20416;-67
2023/04/19 11:07:53;;;;;;;30.80;19.13;;;32.90;99.90;;;;;;4893973;29;20764;-68
2023/04/19 11:10:30;;;;;;;121.68;82.13;;;32.80;99.90;;;;;;4891699;29;20740;-67
2023/04/19 11:12:57;;;;;;;563.58;368.45;;;32.80;99.90;;;;;;4889209;29;20440;-66
2023/04/19 11:15:24;;;;;;;143.25;88.88;;;32.80;99.90;;;;;;4887779;29;20390;-66
2023/04/19 11:17:51;;;;;;;605.20;443.40;;;32.70;99.90;;;;;;4892212;29;20402;-66
2023/04/19 11:20:22;;;;;;;634.65;376.02;;;32.70;99.90;;;;;;4897862;29;20409;-68
2023/04/19 11:22:49;;;;;;;1225.20;732.37;;;32.60;99.90;;;;;;4898433;29;20863;-67
2023/04/19 11:25:19;;;;;;;49.60;34.70;;;32.60;99.90;;;;;;4934394;29;20433;-67
2023/04/19 11:27:50;;;;;;;512.90;309.83;;;32.60;99.90;;;;;;4953933;28;27040;-69
2023/04/19 11:30:21;;;;;;;601.35;414.58;;;32.60;99.90;;;;;;4951153;29;20440;-69
2023/04/19 11:32:51;;;;;;;537.80;365.60;;;32.60;99.90;;;;;;4955239;29;20435;-68
2023/04/19 11:35:26;;;;;;;51.50;31.80;;;32.60;99.90;;;;;;4953588;29;20400;-68
2023/04/19 11:37:53;;;;;;;1033.03;710.17;;;32.60;99.90;;;;;;4953028;28;20419;-70
2023/04/19 11:40:25;;;;;;;1668.23;999.90;;;32.50;99.90;;;;;;4953500;29;20397;-67
2023/04/19 11:43:11;;;;;;;661.33;455.60;;;32.40;99.90;;;;;;4954952;28;20750;-67
2023/04/19 11:45:38;;;;;;;680.17;515.85;;;32.50;99.90;;;;;;4962368;28;20432;-67
2023/04/19 11:48:06;;;;;;;474.33;274.57;;;32.50;99.90;;;;;;4961798;28;20411;-65
2023/04/19 11:50:57;;;;;;;26.50;20.15;;;32.40;99.90;;;;;;4960551;28;20376;-66
2023/04/19 11:53:25;;;;;;;300.25;187.05;;;32.40;99.90;;;;;;4907777;29;20492;-67
2023/04/19 11:55:57;;;;;;;271.45;207.27;;;32.40;99.90;;;;;;4912053;29;20403;-67
2023/04/19 11:58:34;;;;;;;761.60;384.80;;;32.40;99.90;;;;;;4950037;28;20834;-67
2023/04/19 12:01:11;;;;;;;154.00;102.57;;;32.40;99.90;;;;;;4950761;29;20519;-68
2023/04/19 12:03:49;;;;;;;711.17;548.03;;;32.40;99.90;;;;;;4945872;29;20477;-67
2023/04/19 12:06:21;;;;;;;167.77;124.07;;;32.40;99.90;;;;;;4950013;29;20416;-67
2023/04/19 12:08:50;;;;;;;348.85;213.88;;;32.40;99.90;;;;;;4943171;29;20553;-67
2023/04/19 12:11:20;;;;;;;1066.50;831.25;;;32.40;99.90;;;;;;4948221;29;20435;-67
2023/04/19 12:13:48;;;;;;;997.33;679.67;;;32.40;99.90;;;;;;4949212;29;20801;-67
2023/04/19 12:16:26;;;;;;;662.30;437.83;;;32.30;99.90;;;;;;4961884;28;20448;-66
2023/04/19 12:18:52;;;;;;;398.45;260.33;;;32.40;99.90;;;;;;4943457;29;20798;-66
2023/04/19 12:21:31;;;;;;;743.35;512.53;;;32.40;99.90;;;;;;4945546;29;20039;-68
2023/04/19 12:23:59;;;;;;;354.17;267.90;;;32.30;99.90;;;;;;4946291;29;20224;-67
2023/04/19 12:26:28;;;;;;;60.65;37.58;;;32.20;99.90;;;;;;4956900;28;20031;-67
2023/04/19 12:28:56;;;;;;;26.52;18.17;;;32.10;99.90;;;;;;4940683;29;20064;-67